Time;durP1;ratioP1;P1;durP2;ratioP2;P2;SDS_P1;SDS_P2;PMS_P1;PMS_P2;Temp;Humidity;BMP_temperature;BMP_pressure;BME280_temperature;BME280_humidity;BME280_pressure;Samples;Min_cycle;Max_cycle;Signal;HPM_P1;HPM_P2
2020/12/01 00:02:14;;;;;;;33.00;18.30;;;;;;;3.35;63.46;96814.66;5072898;28;20197;-64
2020/12/01 00:04:39;;;;;;;38.17;19.80;;;;;;;4.67;69.03;96813.00;5073626;28;20198;-66
2020/12/01 00:07:05;;;;;;;29.90;15.50;;;;;;;6.69;69.69;96807.22;5050016;28;20287;-65
2020/12/01 00:09:31;;;;;;;29.90;17.20;;;;;;;8.69;59.21;96812.22;5058583;28;20186;-64
2020/12/01 00:11:57;;;;;;;30.40;18.30;;;;;;;7.55;53.03;96799.53;5065361;28;20187;-65
2020/12/01 00:14:22;;;;;;;30.97;18.40;;;;;;;5.87;56.32;96805.69;5062443;28;20175;-67
2020/12/01 00:16:48;;;;;;;34.90;19.80;;;;;;;5.22;58.14;96806.81;5067611;28;20653;-64
2020/12/01 00:19:14;;;;;;;35.37;19.40;;;;;;;4.73;60.01;96786.56;5066922;28;20174;-65
2020/12/01 00:21:39;;;;;;;36.53;19.80;;;;;;;4.26;61.79;96792.03;5059626;28;20175;-65
2020/12/01 00:24:05;;;;;;;36.07;19.60;;;;;;;3.84;63.45;96779.78;5065583;28;20425;-66
2020/12/01 00:26:31;;;;;;;32.27;19.73;;;;;;;4.03;62.64;96783.53;5060872;28;20206;-66
2020/12/01 00:28:57;;;;;;;38.27;20.20;;;;;;;3.67;64.36;96775.06;5069945;28;20468;-67
2020/12/01 00:31:22;;;;;;;33.50;19.73;;;;;;;3.69;63.88;96775.78;5046806;28;20183;-65
2020/12/01 00:33:48;;;;;;;36.10;19.97;;;;;;;3.41;65.74;96762.38;5067468;28;20189;-66
2020/12/01 00:36:15;;;;;;;38.17;21.63;;;;;;;3.61;65.13;96762.59;5063951;28;20199;-66
2020/12/01 00:38:40;;;;;;;38.33;20.60;;;;;;;3.07;66.99;96755.44;5062762;28;20519;-66
2020/12/01 00:41:07;;;;;;;37.70;21.00;;;;;;;3.33;66.52;96746.59;5067353;28;20558;-66
2020/12/01 00:43:32;;;;;;;40.10;20.80;;;;;;;3.16;67.52;96743.53;5066191;28;20460;-66
2020/12/01 00:45:58;;;;;;;42.73;21.70;;;;;;;3.19;67.69;96742.50;5069974;28;20492;-66
2020/12/01 00:48:24;;;;;;;40.60;21.03;;;;;;;3.23;67.48;96744.72;5067062;28;20228;-66
2020/12/01 00:50:50;;;;;;;44.53;22.17;;;;;;;3.19;67.91;96732.13;5041653;28;20227;-66
2020/12/01 00:53:16;;;;;;;46.20;22.70;;;;;;;3.07;68.36;96724.34;5055919;28;20538;-66
2020/12/01 00:55:42;;;;;;;41.13;21.83;;;;;;;3.33;67.48;96725.88;5061434;28;20210;-66
2020/12/01 00:58:08;;;;;;;35.73;20.97;;;;;;;3.13;67.96;96723.06;5069118;28;20428;-66
2020/12/01 01:00:33;;;;;;;41.90;21.77;;;;;;;2.83;69.19;96714.09;5063764;28;20178;-66
2020/12/01 01:02:59;;;;;;;48.67;22.70;;;;;;;3.13;68.44;96707.53;5071426;28;20424;-66
2020/12/01 01:05:25;;;;;;;41.00;21.37;;;;;;;3.17;68.37;96702.94;5070132;28;20303;-68
2020/12/01 01:07:51;;;;;;;40.07;21.30;;;;;;;3.14;68.50;96688.47;5064558;28;20599;-67
2020/12/01 01:10:29;;;;;;;41.13;21.37;;;;;;;3.06;69.49;96688.22;5070061;28;20412;-67
2020/12/01 01:12:55;;;;;;;50.73;24.10;;;;;;;2.87;70.74;96681.88;5065908;28;20179;-67
2020/12/01 01:15:26;;;;;;;40.03;21.00;;;;;;;2.94;70.45;96671.03;5074646;28;20490;-67
2020/12/01 01:17:52;;;;;;;44.80;22.80;;;;;;;3.07;69.64;96677.75;5065728;28;20436;-66
2020/12/01 01:20:18;;;;;;;46.60;24.70;;;;;;;2.74;70.81;96675.97;5071470;28;20511;-65
2020/12/01 01:22:43;;;;;;;42.03;22.60;;;;;;;2.88;70.85;96670.56;5066138;28;20183;-66
2020/12/01 01:25:09;;;;;;;40.63;22.30;;;;;;;3.05;70.24;96674.44;5081232;28;20186;-67
2020/12/01 01:27:35;;;;;;;43.87;22.23;;;;;;;3.06;70.66;96659.72;5073229;28;20209;-66
2020/12/01 01:30:01;;;;;;;43.00;22.30;;;;;;;2.95;71.01;96662.31;5074371;28;20194;-65
2020/12/01 01:32:26;;;;;;;45.00;21.57;;;;;;;3.04;71.08;96657.25;5075441;28;20214;-69
2020/12/01 01:34:52;;;;;;;39.87;20.90;;;;;;;3.01;71.43;96641.16;5068688;28;20236;-65
2020/12/01 01:37:18;;;;;;;43.40;22.07;;;;;;;2.90;71.50;96654.91;5067941;28;20203;-66
2020/12/01 01:39:44;;;;;;;38.07;19.70;;;;;;;2.71;72.08;96645.16;5069076;28;20657;-67
2020/12/01 01:42:10;;;;;;;44.20;22.70;;;;;;;3.03;71.30;96647.00;5068991;28;20255;-66
2020/12/01 01:44:36;;;;;;;41.97;22.30;;;;;;;3.33;70.71;96646.41;5071215;28;20183;-69
2020/12/01 01:47:16;;;;;;;40.70;21.47;;;;;;;3.45;69.84;96646.38;5067073;28;20502;-65
2020/12/01 01:49:42;;;;;;;35.47;20.20;;;;;;;3.41;69.70;96639.78;5069738;28;20424;-67
2020/12/01 01:52:14;;;;;;;47.97;22.80;;;;;;;3.27;70.16;96636.53;5066826;28;20977;-69
2020/12/01 01:54:41;;;;;;;41.80;21.87;;;;;;;3.19;70.54;96637.13;5059556;28;20420;-67
2020/12/01 01:57:07;;;;;;;43.67;21.97;;;;;;;3.40;70.11;96635.56;5067637;28;20475;-66
2020/12/01 01:59:33;;;;;;;42.90;21.50;;;;;;;3.33;69.95;96632.63;5049704;28;20434;-64
2020/12/01 02:02:00;;;;;;;37.17;19.60;;;;;;;3.46;69.75;96624.72;5051042;28;20791;-66
2020/12/01 02:04:28;;;;;;;40.67;20.77;;;;;;;3.53;69.23;96616.31;5048337;28;20187;-66
2020/12/01 02:07:00;;;;;;;35.93;20.20;;;;;;;3.48;69.53;96602.91;5064234;28;20460;-67
2020/12/01 02:09:37;;;;;;;40.77;20.87;;;;;;;3.43;69.18;96602.44;5070574;28;20444;-66
2020/12/01 02:12:04;;;;;;;38.20;20.37;;;;;;;3.30;70.13;96596.59;5072922;28;20424;-65
2020/12/01 02:14:34;;;;;;;39.83;19.97;;;;;;;3.39;69.59;96590.72;5066043;28;20886;-66
2020/12/01 02:17:26;;;;;;;40.13;20.73;;;;;;;3.51;69.42;96587.13;5071925;28;20436;-65
2020/12/01 02:19:55;;;;;;;39.17;20.57;;;;;;;3.58;69.46;96582.28;5075485;28;20519;-66
2020/12/01 02:22:22;;;;;;;38.73;20.40;;;;;;;3.74;69.13;96579.25;5053168;28;20426;-65
2020/12/01 02:24:48;;;;;;;39.30;19.60;;;;;;;3.66;69.01;96573.84;5072118;28;20428;-64
2020/12/01 02:27:16;;;;;;;37.40;20.40;;;;;;;3.38;70.05;96570.91;5075278;28;20834;-65
2020/12/01 02:29:45;;;;;;;36.40;21.00;;;;;;;3.56;69.44;96563.44;5074854;28;20424;-64
2020/12/01 02:32:12;;;;;;;39.00;20.17;;;;;;;3.79;68.34;96556.34;5072929;28;20432;-65
2020/12/01 02:34:42;;;;;;;36.80;20.60;;;;;;;3.71;68.88;96550.19;5073984;28;20475;-65
2020/12/01 02:37:09;;;;;;;38.60;20.07;;;;;;;3.59;69.21;96542.44;5065415;28;20433;-64
2020/12/01 02:39:35;;;;;;;38.67;20.03;;;;;;;3.73;68.63;96541.31;5072892;28;20790;-66
2020/12/01 02:42:06;;;;;;;38.60;20.80;;;;;;;3.66;68.99;96527.22;5068230;28;20444;-67
2020/12/01 02:44:32;;;;;;;40.47;20.40;;;;;;;3.67;69.35;96527.09;5073227;28;20575;-66
2020/12/01 02:47:00;;;;;;;40.83;19.27;;;;;;;3.81;68.58;96520.78;5073080;28;20559;-66
2020/12/01 02:49:26;;;;;;;34.90;18.90;;;;;;;3.74;68.97;96514.47;5072288;28;20225;-66
2020/12/01 02:51:52;;;;;;;37.87;21.03;;;;;;;3.57;69.77;96507.22;5073655;28;20460;-66
2020/12/01 02:54:17;;;;;;;36.23;18.97;;;;;;;3.70;69.20;96502.69;5060304;28;20471;-67
2020/12/01 02:56:45;;;;;;;34.20;18.50;;;;;;;3.42;70.45;96497.16;5073552;28;20277;-64
2020/12/01 02:59:13;;;;;;;34.73;18.30;;;;;;;3.22;71.10;96486.66;5057810;28;20182;-67
2020/12/01 03:01:39;;;;;;;37.23;19.23;;;;;;;3.45;70.52;96483.16;5074328;28;20451;-67
2020/12/01 03:04:05;;;;;;;35.20;17.80;;;;;;;3.27;71.51;96485.50;5074010;28;20784;-65
2020/12/01 03:06:31;;;;;;;35.23;17.30;;;;;;;3.35;71.29;96477.91;5071818;28;20202;-65
2020/12/01 03:08:56;;;;;;;32.40;17.63;;;;;;;3.36;71.42;96475.19;5069528;28;20321;-66
2020/12/01 03:11:22;;;;;;;38.83;18.33;;;;;;;3.31;71.53;96466.97;5066879;28;20186;-66
2020/12/01 03:13:48;;;;;;;39.63;18.90;;;;;;;3.46;71.50;96464.91;5069767;28;20228;-66
2020/12/01 03:16:14;;;;;;;33.00;17.73;;;;;;;2.96;73.41;96462.06;5055715;28;20669;-66
2020/12/01 03:18:42;;;;;;;32.40;18.23;;;;;;;3.31;72.69;96468.72;5073824;28;20232;-65
2020/12/01 03:21:08;;;;;;;33.03;17.43;;;;;;;3.51;71.84;96459.34;5071780;28;20273;-65
2020/12/01 03:23:34;;;;;;;33.43;18.37;;;;;;;3.48;71.69;96465.59;5058862;28;20429;-65
2020/12/01 03:26:00;;;;;;;33.63;17.67;;;;;;;3.34;72.57;96452.94;5072897;28;20460;-67
2020/12/01 03:28:26;;;;;;;34.87;18.90;;;;;;;3.51;72.37;96452.41;5064260;28;20444;-66
2020/12/01 03:30:52;;;;;;;34.03;18.60;;;;;;;3.47;72.77;96451.00;5072847;28;20474;-67
2020/12/01 03:33:18;;;;;;;37.03;18.00;;;;;;;3.46;72.31;96449.34;5072668;28;20521;-66
2020/12/01 03:35:44;;;;;;;37.00;18.60;;;;;;;3.45;72.44;96452.09;5072504;28;20206;-67
2020/12/01 03:38:10;;;;;;;33.03;18.13;;;;;;;3.62;72.59;96448.09;5072769;28;20447;-67
2020/12/01 03:40:36;;;;;;;38.67;19.80;;;;;;;3.65;71.83;96438.28;5071566;28;20440;-70
2020/12/01 03:43:01;;;;;;;37.53;18.60;;;;;;;3.59;72.28;96437.97;5072575;28;20424;-66
2020/12/01 03:45:27;;;;;;;41.43;19.37;;;;;;;3.42;72.71;96442.78;5072589;28;20652;-67
2020/12/01 03:47:54;;;;;;;40.23;18.47;;;;;;;3.61;72.39;96436.09;5073183;28;20563;-67
2020/12/01 03:50:22;;;;;;;34.53;18.60;;;;;;;3.60;72.50;96434.44;5064832;28;20183;-67
2020/12/01 03:52:48;;;;;;;36.80;17.43;;;;;;;3.61;72.33;96436.88;5061017;28;20509;-66
2020/12/01 03:55:14;;;;;;;43.70;19.13;;;;;;;3.82;71.92;96423.09;5074270;28;20421;-67
2020/12/01 03:57:40;;;;;;;35.67;17.47;;;;;;;3.84;71.65;96421.22;5073994;28;20454;-68
2020/12/01 04:00:11;;;;;;;34.37;18.30;;;;;;;3.66;71.99;96421.78;5073679;28;21070;-67
2020/12/01 04:02:37;;;;;;;30.60;17.30;;;;;;;3.97;71.63;96424.38;5059255;28;20461;-68
2020/12/01 04:05:04;;;;;;;34.67;17.23;;;;;;;3.65;72.23;96421.94;5069994;28;20432;-67
2020/12/01 04:07:30;;;;;;;37.27;18.10;;;;;;;3.72;72.60;96420.44;5071309;28;20198;-67
2020/12/01 04:09:57;;;;;;;37.70;17.80;;;;;;;3.92;71.52;96418.78;5067462;28;20851;-67
2020/12/01 04:12:24;;;;;;;34.60;17.10;;;;;;;3.88;71.60;96411.41;5048192;28;20212;-67
2020/12/01 04:14:50;;;;;;;31.80;16.37;;;;;;;4.02;71.28;96410.22;5061289;28;20457;-67
2020/12/01 04:17:16;;;;;;;35.47;19.03;;;;;;;4.04;71.44;96408.31;5069860;28;20483;-67
2020/12/01 04:19:42;;;;;;;31.53;17.00;;;;;;;4.06;70.85;96409.00;5071402;28;20463;-68
2020/12/01 04:22:08;;;;;;;42.10;20.27;;;;;;;3.94;71.33;96400.50;5071215;28;20634;-69
2020/12/01 04:24:34;;;;;;;35.03;17.90;;;;;;;3.89;71.67;96397.47;5071429;28;20420;-70
2020/12/01 04:27:00;;;;;;;32.37;16.77;;;;;;;4.05;70.99;96392.59;5070513;28;20448;-68
2020/12/01 04:29:25;;;;;;;32.77;17.47;;;;;;;3.89;71.09;96402.66;5070799;28;20256;-69
2020/12/01 04:31:51;;;;;;;31.83;17.53;;;;;;;3.94;70.97;96398.72;5070815;28;20230;-67
2020/12/01 04:34:17;;;;;;;34.83;18.37;;;;;;;3.97;71.73;96405.41;5071054;28;20182;-67
2020/12/01 04:36:42;;;;;;;36.27;17.63;;;;;;;3.91;71.24;96400.75;5069242;28;20206;-66
2020/12/01 04:39:08;;;;;;;37.00;17.80;;;;;;;3.86;71.80;96397.72;5066201;28;20244;-67
2020/12/01 04:41:34;;;;;;;30.10;17.00;;;;;;;3.77;71.69;96389.78;5063615;28;20191;-66
2020/12/01 04:44:03;;;;;;;33.23;17.73;;;;;;;3.55;72.84;96388.19;5067944;28;20439;-67
2020/12/01 04:46:32;;;;;;;30.60;17.53;;;;;;;3.68;72.22;96395.72;5069537;28;20233;-66
2020/12/01 04:49:02;;;;;;;35.37;17.00;;;;;;;3.74;72.35;96390.06;5068976;28;20527;-67
2020/12/01 04:51:53;;;;;;;31.20;17.17;;;;;;;3.48;73.15;96390.47;5066274;28;20444;-67
2020/12/01 04:55:01;;;;;;;31.70;17.60;;;;;;;3.83;72.03;96378.91;5055693;28;20432;-67
2020/12/01 04:57:45;;;;;;;29.87;15.67;;;;;;;3.62;72.68;96385.91;5057473;28;20429;-67
2020/12/01 05:00:17;;;;;;;31.13;16.80;;;;;;;3.58;73.69;96379.31;5054978;28;20429;-67
2020/12/01 05:03:07;;;;;;;30.40;16.20;;;;;;;3.72;73.39;96375.59;5068851;28;20424;-67
2020/12/01 05:08:31;;;;;;;30.70;15.70;;;;;;;3.79;73.25;96377.50;5064379;28;20951;-67
2020/12/01 05:11:02;;;;;;;30.17;15.57;;;;;;;4.03;71.94;96368.59;5068936;28;20519;-67
2020/12/01 05:13:32;;;;;;;33.03;15.07;;;;;;;3.96;71.58;96364.88;5062353;28;20547;-66
2020/12/01 05:16:14;;;;;;;30.03;15.20;;;;;;;3.94;72.19;96369.38;5067128;28;20478;-67
2020/12/01 05:18:41;;;;;;;30.57;15.60;;;;;;;4.25;71.38;96369.34;5069299;28;20456;-66
2020/12/01 05:21:09;;;;;;;30.57;15.87;;;;;;;3.73;73.01;96372.84;5070608;28;20737;-66
2020/12/01 05:23:40;;;;;;;33.00;15.93;;;;;;;3.83;72.91;96372.91;5070293;28;20420;-67
2020/12/01 05:26:10;;;;;;;38.50;15.80;;;;;;;3.92;72.54;96372.09;5070397;28;20472;-66
2020/12/01 05:28:55;;;;;;;31.37;15.87;;;;;;;3.89;72.60;96361.19;5058903;28;20974;-66
2020/12/01 05:31:27;;;;;;;31.27;16.10;;;;;;;3.96;72.34;96367.47;5057969;28;20425;-67
2020/12/01 05:34:00;;;;;;;30.73;16.13;;;;;;;3.59;73.39;96365.41;5068914;28;20456;-67
2020/12/01 05:36:34;;;;;;;26.90;14.83;;;;;;;3.99;72.47;96356.84;5075610;28;20459;-67
2020/12/01 05:39:02;;;;;;;36.90;16.80;;;;;;;3.44;74.17;96368.34;5078352;28;20458;-68
2020/12/01 05:41:33;;;;;;;27.60;15.87;;;;;;;4.10;72.28;96361.09;5071137;28;20534;-67
2020/12/01 05:44:03;;;;;;;31.73;15.70;;;;;;;3.75;73.00;96368.38;5067658;28;20826;-67
2020/12/01 05:46:41;;;;;;;28.60;16.97;;;;;;;3.73;73.55;96367.66;5070331;28;20472;-67
2020/12/01 05:49:19;;;;;;;27.97;14.00;;;;;;;4.20;71.73;96363.72;5045996;28;20424;-67
2020/12/01 05:51:47;;;;;;;31.77;14.90;;;;;;;4.00;72.54;96374.06;5073726;28;20420;-67
2020/12/01 05:54:21;;;;;;;26.53;14.13;;;;;;;4.34;71.29;96376.31;5072257;28;20424;-67
2020/12/01 05:56:51;;;;;;;27.10;14.60;;;;;;;4.46;71.12;96374.44;5074368;28;20505;-66
2020/12/01 05:59:19;;;;;;;34.67;14.73;;;;;;;4.39;71.15;96375.91;5073646;28;20535;-67
2020/12/01 06:01:48;;;;;;;26.30;14.37;;;;;;;4.18;71.66;96371.66;5066651;28;20424;-66
2020/12/01 06:04:26;;;;;;;24.50;14.57;;;;;;;4.29;71.64;96373.28;5072850;28;20482;-67
2020/12/01 06:07:11;;;;;;;24.37;13.20;;;;;;;4.17;72.11;96372.59;5073567;28;20547;-67
2020/12/01 06:09:46;;;;;;;30.70;13.70;;;;;;;4.03;72.87;96373.78;5069174;28;20443;-67
2020/12/01 06:12:24;;;;;;;23.77;13.40;;;;;;;4.10;72.50;96374.91;5047105;28;20420;-66
2020/12/01 06:15:03;;;;;;;24.97;13.43;;;;;;;4.17;72.71;96370.00;5072012;28;20427;-66
2020/12/01 06:17:54;;;;;;;23.87;13.43;;;;;;;4.41;71.69;96371.41;5072413;28;20788;-67
2020/12/01 06:20:31;;;;;;;23.47;13.10;;;;;;;4.55;70.56;96368.44;5060395;28;20851;-66
2020/12/01 06:23:22;;;;;;;25.50;13.30;;;;;;;4.54;70.89;96371.16;5064567;28;20436;-67
2020/12/01 06:26:10;;;;;;;26.07;13.43;;;;;;;4.49;70.72;96371.56;5073520;28;20797;-67
2020/12/01 06:29:00;;;;;;;23.13;11.90;;;;;;;4.56;70.95;96366.66;5062881;28;20435;-66
2020/12/01 06:31:54;;;;;;;21.20;13.00;;;;;;;4.59;70.89;96367.22;5061662;28;20421;-67
2020/12/01 06:34:23;;;;;;;24.90;13.90;;;;;;;4.67;70.73;96366.50;5059016;28;20421;-66
2020/12/01 06:37:03;;;;;;;23.53;13.10;;;;;;;4.75;70.91;96361.47;5073378;28;20444;-66
2020/12/01 06:39:45;;;;;;;22.23;12.20;;;;;;;4.74;70.62;96359.00;5072814;28;20424;-66
2020/12/01 06:42:36;;;;;;;23.10;12.33;;;;;;;4.78;70.15;96362.16;5070490;28;20543;-67
2020/12/01 06:45:24;;;;;;;18.70;10.33;;;;;;;4.85;69.65;96371.03;5071050;28;20751;-67
2020/12/01 06:47:51;;;;;;;21.47;12.13;;;;;;;4.68;70.57;96351.78;5072445;28;20459;-67
2020/12/01 06:50:19;;;;;;;22.50;11.83;;;;;;;4.57;70.04;96357.91;5071766;28;20413;-66
2020/12/01 06:53:00;;;;;;;19.43;11.57;;;;;;;4.87;69.61;96366.53;5064075;28;20453;-67
2020/12/01 06:55:49;;;;;;;21.57;11.83;;;;;;;4.74;70.27;96357.25;5072891;28;20512;-67
2020/12/01 06:58:18;;;;;;;22.30;11.53;;;;;;;4.85;69.85;96371.03;5071756;28;20522;-67
2020/12/01 07:00:44;;;;;;;16.07;10.33;;;;;;;4.83;69.75;96370.34;5072139;28;20419;-66
2020/12/01 07:03:10;;;;;;;19.90;11.50;;;;;;;4.54;70.17;96371.16;5072489;28;20432;-67
2020/12/01 07:05:36;;;;;;;20.50;11.57;;;;;;;4.58;70.43;96360.38;5072187;28;20214;-66
2020/12/01 07:08:19;;;;;;;18.00;10.63;;;;;;;4.81;70.03;96364.47;5070021;28;20938;-67
2020/12/01 07:10:45;;;;;;;17.90;10.10;;;;;;;4.80;69.68;96365.44;5054672;28;20986;-67
2020/12/01 07:13:43;;;;;;;20.30;11.10;;;;;;;4.79;69.54;96369.81;5070955;28;20924;-68
2020/12/01 07:16:21;;;;;;;18.73;10.53;;;;;;;4.68;70.33;96362.97;5066242;28;20444;-67
2020/12/01 07:18:47;;;;;;;17.57;10.10;;;;;;;4.86;69.98;96364.91;5071148;28;20423;-67
2020/12/01 07:21:15;;;;;;;18.17;10.30;;;;;;;4.62;70.02;96358.34;5072551;28;20515;-66
2020/12/01 07:24:16;;;;;;;15.30;9.60;;;;;;;4.27;71.32;96364.84;5064271;28;20518;-67
2020/12/01 07:26:52;;;;;;;18.63;11.20;;;;;;;3.66;73.58;96367.38;5064085;28;20456;-67
2020/12/01 07:29:24;;;;;;;17.20;9.50;;;;;;;4.34;71.39;96371.13;5055826;28;20412;-67
2020/12/01 07:31:51;;;;;;;16.33;10.33;;;;;;;4.16;72.67;96363.16;5062609;28;20423;-68
2020/12/01 07:34:29;;;;;;;17.03;9.23;;;;;;;4.42;70.87;96367.88;5045973;28;20425;-67
2020/12/01 07:37:13;;;;;;;13.70;8.37;;;;;;;3.95;72.30;96365.84;5047856;28;20869;-66
2020/12/01 07:39:49;;;;;;;12.03;8.00;;;;;;;4.08;72.18;96371.59;5042324;28;20418;-66
2020/12/01 07:42:23;;;;;;;13.13;7.53;;;;;;;4.51;70.89;96376.63;5043907;28;20516;-66
2020/12/01 07:44:49;;;;;;;12.77;7.80;;;;;;;4.66;69.75;96370.09;5046311;28;20432;-68
2020/12/01 07:47:20;;;;;;;15.93;7.37;;;;;;;4.01;71.33;96365.31;5044302;28;20968;-68
2020/12/01 07:50:25;;;;;;;16.53;8.57;;;;;;;4.39;71.07;96374.16;5046873;28;20180;-67
2020/12/01 07:53:02;;;;;;;10.97;7.47;;;;;;;4.14;72.17;96365.91;5057878;28;20421;-67
2020/12/01 07:55:36;;;;;;;12.20;7.90;;;;;;;4.23;71.81;96368.66;5070869;28;20886;-67
2020/12/01 07:58:12;;;;;;;17.20;8.47;;;;;;;4.44;71.27;96374.56;5071421;28;20428;-68
2020/12/01 08:00:38;;;;;;;12.90;8.00;;;;;;;4.35;71.45;96377.16;5062406;28;20420;-67
2020/12/01 08:03:19;;;;;;;13.70;8.67;;;;;;;4.22;71.47;96385.97;5070635;28;20954;-68
2020/12/01 08:05:46;;;;;;;13.23;8.10;;;;;;;4.04;72.44;96375.41;5071234;28;20656;-65
2020/12/01 08:08:17;;;;;;;10.57;6.63;;;;;;;4.10;72.29;96372.31;5071813;28;20416;-67
2020/12/01 08:10:47;;;;;;;10.87;6.43;;;;;;;4.05;72.61;96374.47;5064681;28;20771;-66
2020/12/01 08:13:14;;;;;;;11.20;7.40;;;;;;;4.12;72.48;96375.59;5054794;28;20451;-66
2020/12/01 08:15:40;;;;;;;11.67;6.73;;;;;;;4.20;72.10;96374.09;5070132;28;20417;-66
2020/12/01 08:18:06;;;;;;;12.00;7.47;;;;;;;4.46;70.83;96377.03;5071327;28;20919;-66
2020/12/01 08:20:32;;;;;;;12.17;7.00;;;;;;;4.51;70.82;96381.81;5070214;28;20429;-66
2020/12/01 08:23:11;;;;;;;15.07;7.00;;;;;;;4.63;69.97;96385.09;5063158;28;20524;-66
2020/12/01 08:25:37;;;;;;;11.63;6.70;;;;;;;4.55;70.49;96386.59;5071276;28;20428;-66
2020/12/01 08:28:13;;;;;;;11.47;7.10;;;;;;;4.69;70.26;96390.56;5071511;28;20478;-67
2020/12/01 08:30:56;;;;;;;11.50;7.00;;;;;;;4.60;70.65;96381.81;5070708;28;20765;-68
2020/12/01 08:33:42;;;;;;;10.03;5.83;;;;;;;4.56;70.29;96390.00;5043044;28;20436;-65
2020/12/01 08:36:43;;;;;;;8.70;5.93;;;;;;;4.48;70.52;96389.88;5064083;28;20447;-66
2020/12/01 08:39:23;;;;;;;20.63;6.13;;;;;;;4.46;70.99;96385.63;5056541;28;20999;-66
2020/12/01 08:41:54;;;;;;;7.10;5.17;;;;;;;4.37;71.18;96381.25;5065187;28;20452;-66
2020/12/01 08:44:53;;;;;;;8.83;6.00;;;;;;;4.41;70.91;96385.19;5055845;28;20838;-66
2020/12/01 08:47:22;;;;;;;8.23;6.00;;;;;;;4.15;71.32;96380.53;5058984;28;20467;-66
2020/12/01 08:49:50;;;;;;;9.10;5.53;;;;;;;4.56;70.42;96388.25;5052037;28;20887;-66
2020/12/01 08:52:27;;;;;;;11.33;5.57;;;;;;;3.69;72.70;96390.44;5062943;28;20425;-67
2020/12/01 08:54:58;;;;;;;11.73;5.00;;;;;;;3.92;72.56;96394.59;5095721;28;20431;-68
2020/12/01 08:57:28;;;;;;;7.67;5.20;;;;;;;4.43;70.79;96385.88;5079888;28;20989;-67
2020/12/01 09:00:05;;;;;;;5.20;4.53;;;;;;;4.55;70.66;96393.56;5074357;28;20423;-67
2020/12/01 09:02:39;;;;;;;7.00;4.70;;;;;;;4.29;70.93;96394.03;5072300;28;20450;-68
2020/12/01 09:05:06;;;;;;;12.53;5.60;;;;;;;4.64;70.60;96397.97;5073508;28;20422;-70
2020/12/01 09:07:40;;;;;;;12.27;5.07;;;;;;;4.43;70.76;96392.88;5092284;28;20513;-67
2020/12/01 09:10:21;;;;;;;7.60;5.20;;;;;;;4.42;70.86;96399.00;5087679;28;20443;-66
2020/12/01 09:22:09;;;;;;;7.10;5.60;;;;;;;4.98;69.63;96405.34;5056458;28;20420;-65
2020/12/01 09:24:20;;;;;;;10.33;5.80;;;;;;;5.04;68.97;96401.38;5059141;28;20424;-66
2020/12/01 09:26:45;;;;;;;7.97;6.00;;;;;;;5.07;68.42;96394.13;5075185;28;20456;-66
2020/12/01 09:29:11;;;;;;;6.60;5.27;;;;;;;5.11;68.98;96399.84;5068799;28;20417;-67
2020/12/01 09:31:39;;;;;;;9.23;4.70;;;;;;;5.10;68.49;96407.81;5067769;28;20260;-66
2020/12/01 09:34:05;;;;;;;7.17;5.40;;;;;;;4.88;69.29;96404.53;5067171;28;20551;-66
2020/12/01 09:36:31;;;;;;;10.00;6.70;;;;;;;5.05;68.38;96409.03;5075206;28;20435;-67
2020/12/01 09:38:56;;;;;;;15.27;5.73;;;;;;;5.01;68.79;96415.47;5074696;28;20557;-66
2020/12/01 09:41:24;;;;;;;7.03;5.00;;;;;;;5.01;68.45;96420.66;5074615;28;20637;-66
2020/12/01 09:46:21;;;;;;;6.40;4.90;;;;;;;5.21;68.06;96415.44;5074315;28;20490;-66
2020/12/01 09:48:47;;;;;;;11.37;6.00;;;;;;;5.27;67.92;96424.47;5074114;28;20412;-66
2020/12/01 09:51:14;;;;;;;10.80;5.60;;;;;;;5.31;68.13;96431.03;5072331;28;20428;-66
2020/12/01 09:56:33;;;;;;;9.13;5.20;;;;;;;5.28;67.96;96424.34;5074429;28;20424;-66
2020/12/01 10:13:06;;;;;;;7.60;5.17;;;;;;;5.38;68.12;96424.31;5058210;28;20428;-66
2020/12/01 10:15:53;;;;;;;7.60;5.80;;;;;;;5.41;67.89;96421.44;5059704;28;20421;-65
2020/12/01 10:37:11;;;;;;;9.60;6.00;;;;;;;5.41;67.25;96421.44;5071391;28;20574;-66
2020/12/01 10:39:36;;;;;;;10.90;6.20;;;;;;;5.13;67.98;96416.13;5075611;28;20881;-66
2020/12/01 10:42:10;;;;;;;11.33;6.17;;;;;;;5.15;68.04;96418.63;5071487;28;20722;-66
2020/12/01 10:44:36;;;;;;;11.00;6.70;;;;;;;5.12;68.01;96416.28;5091271;28;20181;-66
2020/12/01 10:47:02;;;;;;;7.93;5.47;;;;;;;5.11;68.32;96417.25;5066299;28;20546;-66
2020/12/01 10:49:27;;;;;;;21.03;8.80;;;;;;;5.27;67.35;96425.31;5041864;28;20966;-66
2020/12/01 10:51:53;;;;;;;18.33;8.47;;;;;;;5.42;67.48;96422.28;5083915;28;20493;-68
2020/12/01 10:54:19;;;;;;;46.60;13.23;;;;;;;5.44;66.92;96422.94;5091833;28;20186;-67
2020/12/01 10:56:50;;;;;;;19.43;8.07;;;;;;;5.36;67.41;96427.06;5075055;28;20193;-65
2020/12/01 10:59:17;;;;;;;10.67;6.83;;;;;;;5.46;67.30;96419.25;5073189;28;20222;-65
2020/12/01 11:01:43;;;;;;;10.40;6.40;;;;;;;5.56;67.27;96424.41;5089666;28;20435;-65
2020/12/01 11:04:09;;;;;;;10.00;6.40;;;;;;;5.62;67.38;96429.06;5075378;28;20428;-65
2020/12/01 11:06:36;;;;;;;10.70;7.23;;;;;;;5.61;67.10;96426.59;5088546;28;20356;-66
2020/12/01 11:09:04;;;;;;;8.37;6.10;;;;;;;5.64;66.50;96421.97;5092238;28;20439;-67
2020/12/01 11:11:30;;;;;;;10.50;6.97;;;;;;;5.69;66.50;96424.13;5067518;28;20439;-65
2020/12/01 11:13:56;;;;;;;14.63;6.97;;;;;;;5.63;66.61;96424.69;5072221;28;20801;-66
2020/12/01 11:16:21;;;;;;;10.53;7.20;;;;;;;5.61;66.71;96435.22;5065724;28;20277;-64
2020/12/01 11:18:47;;;;;;;8.77;6.23;;;;;;;5.64;67.00;96432.38;5072981;28;20247;-65
2020/12/01 11:21:13;;;;;;;10.93;7.43;;;;;;;5.71;66.65;96432.63;5072903;28;20178;-66
2020/12/01 11:23:39;;;;;;;10.90;7.67;;;;;;;5.70;66.39;96430.97;5066258;28;20255;-66
2020/12/01 11:26:05;;;;;;;13.13;6.67;;;;;;;5.72;66.43;96426.47;5072167;28;20230;-66
2020/12/01 11:28:30;;;;;;;8.10;6.47;;;;;;;5.73;66.51;96430.69;5073061;28;20209;-67
2020/12/01 11:30:56;;;;;;;11.67;6.77;;;;;;;5.68;66.28;96422.50;5074402;28;20191;-65
2020/12/01 11:33:22;;;;;;;8.60;6.33;;;;;;;5.67;66.14;96426.84;5073692;28;20178;-65
2020/12/01 11:35:47;;;;;;;9.30;6.70;;;;;;;5.66;66.16;96430.44;5055009;28;20202;-66
2020/12/01 11:38:14;;;;;;;14.20;7.03;;;;;;;5.72;66.68;96436.03;5068546;28;20182;-66
2020/12/01 11:40:40;;;;;;;10.10;7.00;;;;;;;5.58;66.23;96432.09;5065877;28;20453;-67
2020/12/01 11:43:06;;;;;;;8.80;6.87;;;;;;;5.64;66.48;96437.56;5071396;28;20437;-67
2020/12/01 11:45:31;;;;;;;11.03;7.13;;;;;;;5.67;66.33;96434.66;5075485;28;20228;-66
2020/12/01 11:47:57;;;;;;;9.70;7.00;;;;;;;5.74;66.79;96436.72;5072385;28;20214;-65
2020/12/01 11:50:23;;;;;;;11.03;8.30;;;;;;;5.74;66.04;96436.72;5073157;28;20196;-66
2020/12/01 11:52:49;;;;;;;9.00;7.50;;;;;;;5.61;67.10;96437.84;5065048;28;20599;-66
2020/12/01 11:55:14;;;;;;;15.50;9.00;;;;;;;5.76;66.99;96440.00;5070924;28;20186;-66
2020/12/01 11:57:40;;;;;;;11.23;8.10;;;;;;;5.80;66.43;96436.13;5062762;28;20210;-66
2020/12/01 12:00:07;;;;;;;12.07;7.87;;;;;;;5.74;66.36;96439.31;5072255;28;20206;-65
2020/12/01 12:02:33;;;;;;;15.97;7.97;;;;;;;5.84;66.56;96437.50;5061083;28;20275;-65
2020/12/01 12:04:59;;;;;;;10.97;8.60;;;;;;;5.64;66.75;96444.53;5058078;28;20453;-66
2020/12/01 12:07:24;;;;;;;21.30;11.93;;;;;;;5.89;67.12;96444.88;5066311;28;20207;-66
2020/12/01 12:09:50;;;;;;;15.30;8.57;;;;;;;5.90;66.29;96444.75;5075043;28;20178;-68
2020/12/01 12:12:17;;;;;;;12.27;7.73;;;;;;;5.93;66.68;96446.25;5082584;28;20208;-65
2020/12/01 12:14:42;;;;;;;10.30;7.67;;;;;;;6.04;66.32;96438.28;5058351;28;20196;-66
2020/12/01 12:17:08;;;;;;;10.17;7.80;;;;;;;6.07;66.25;96440.63;5056718;28;20786;-65
2020/12/01 12:19:34;;;;;;;12.10;8.40;;;;;;;6.11;65.99;96436.75;5068988;28;20179;-66
2020/12/01 12:21:59;;;;;;;12.07;6.70;;;;;;;6.07;65.97;96431.97;5058299;28;20188;-66
2020/12/01 12:24:25;;;;;;;14.13;7.27;;;;;;;6.08;65.68;96431.00;5066752;28;20209;-65
2020/12/01 12:26:51;;;;;;;10.47;7.20;;;;;;;6.06;65.88;96433.78;5069761;28;20206;-65
2020/12/01 12:29:16;;;;;;;8.50;6.63;;;;;;;6.05;65.71;96431.31;5066857;28;20178;-66
2020/12/01 12:31:42;;;;;;;11.80;7.63;;;;;;;5.97;66.33;96437.19;5056707;28;20200;-66
2020/12/01 12:34:08;;;;;;;10.07;6.90;;;;;;;5.86;66.34;96429.56;5075255;28;20209;-66